地図

経路データ

SID SEASON NUMBER BASIN SUBBASIN NAME ISO_TIME NATURE LAT LON WMO_WIND WMO_PRES WMO_AGENCY TRACK_TYPE DIST2LAND LANDFALL IFLAG USA_AGENCY USA_ATCF_ID USA_LAT USA_LON USA_RECORD USA_STATUS USA_WIND USA_PRES USA_SSHS USA_R34_NE USA_R34_SE USA_R34_SW USA_R34_NW USA_R50_NE USA_R50_SE USA_R50_SW USA_R50_NW USA_R64_NE USA_R64_SE USA_R64_SW USA_R64_NW USA_POCI USA_ROCI USA_RMW USA_EYE TOKYO_LAT TOKYO_LON TOKYO_GRADE TOKYO_WIND TOKYO_PRES TOKYO_R50_DIR TOKYO_R50_LONG TOKYO_R50_SHORT TOKYO_R30_DIR TOKYO_R30_LONG TOKYO_R30_SHORT TOKYO_LAND CMA_LAT CMA_LON CMA_CAT CMA_WIND CMA_PRES HKO_LAT HKO_LON HKO_CAT HKO_WIND HKO_PRES NEWDELHI_LAT NEWDELHI_LON NEWDELHI_GRADE NEWDELHI_WIND NEWDELHI_PRES NEWDELHI_CI NEWDELHI_DP NEWDELHI_POCI REUNION_LAT REUNION_LON REUNION_TYPE REUNION_WIND REUNION_PRES REUNION_TNUM REUNION_CI REUNION_RMW REUNION_R34_NE REUNION_R34_SE REUNION_R34_SW REUNION_R34_NW REUNION_R50_NE REUNION_R50_SE REUNION_R50_SW REUNION_R50_NW REUNION_R64_NE REUNION_R64_SE REUNION_R64_SW REUNION_R64_NW BOM_LAT BOM_LON BOM_TYPE BOM_WIND BOM_PRES BOM_TNUM BOM_CI BOM_RMW BOM_R34_NE BOM_R34_SE BOM_R34_SW BOM_R34_NW BOM_R50_NE BOM_R50_SE BOM_R50_SW BOM_R50_NW BOM_R64_NE BOM_R64_SE BOM_R64_SW BOM_R64_NW BOM_ROCI BOM_POCI BOM_EYE BOM_POS_METHOD BOM_PRES_METHOD NADI_LAT NADI_LON NADI_CAT NADI_WIND NADI_PRES WELLINGTON_LAT WELLINGTON_LON WELLINGTON_WIND WELLINGTON_PRES DS824_LAT DS824_LON DS824_STAGE DS824_WIND DS824_PRES TD9636_LAT TD9636_LON TD9636_STAGE TD9636_WIND TD9636_PRES TD9635_LAT TD9635_LON TD9635_WIND TD9635_PRES TD9635_ROCI NEUMANN_LAT NEUMANN_LON NEUMANN_CLASS NEUMANN_WIND NEUMANN_PRES MLC_LAT MLC_LON MLC_CLASS MLC_WIND MLC_PRES USA_GUST BOM_GUST BOM_GUST_PER REUNION_GUST REUNION_GUST_PER USA_SEAHGT USA_SEARAD_NE USA_SEARAD_SE USA_SEARAD_SW USA_SEARAD_NW STORM_SPEED STORM_DIR
1935250N20090 1935 49 NI BB NOT_NAMED 1935-09-07 00:00:00 TS 20.2000 89.5000 main 161 161 _________O____ -1 20.2000 89.5000 TC 30 1 280
1935250N20090 1935 49 NI BB NOT_NAMED 1935-09-07 03:00:00 TS 20.2067 89.4650 main 161 159 _________PO___ -1 20.2100 89.4475 TC 30 20.2000 89.5000 1 1 265
1935250N20090 1935 49 NI BB NOT_NAMED 1935-09-07 06:00:00 TS 20.1932 89.4169 main 159 159 _________OP___ -1 20.2000 89.4000 TC 30 20.1829 89.4422 1 1 241
1935250N20090 1935 49 NI BB NOT_NAMED 1935-09-07 09:00:00 TS 20.1597 89.3703 main 159 159 _________PP___ -1 20.1575 89.3575 TC 30 20.1626 89.3875 1 1 231
1935250N20090 1935 49 NI BB NOT_NAMED 1935-09-07 12:00:00 TS 20.1180 89.3195 main 169 169 _________OP___ -1 20.1000 89.3000 TC 30 20.1361 89.3390 1 1 234
1935250N20090 1935 49 NI BB NOT_NAMED 1935-09-07 15:00:00 TS 20.0750 89.2500 main 169 168 _________PO___ -1 20.0500 89.2000 TC 30 20.1000 89.3000 1 2 233
1935250N20090 1935 49 NI BB NOT_NAMED 1935-09-07 18:00:00 TS 20.0265 89.1844 main 179 179 _________OP___ -1 20.0000 89.1000 TC 30 20.0529 89.2688 1 1 220
1935250N20090 1935 49 NI BB NOT_NAMED 1935-09-07 21:00:00 TS 19.9748 89.1525 main 179 178 _________PP___ -1 19.9499 89.0800 TC 30 19.9996 89.2250 1 1 226
1935250N20090 1935 49 NI BB NOT_NAMED 1935-09-08 00:00:00 TS 19.9233 89.0719 main 190 190 _________OP___ -1 19.9000 89.0000 TC 30 19.9466 89.1438 1 3 249
1935250N20090 1935 49 NI BB NOT_NAMED 1935-09-08 03:00:00 TS 19.8713 88.8687 main 190 190 _________PO___ -1 19.8426 88.7374 TC 30 19.9000 89.0000 1 5 258
1935250N20090 1935 49 NI BB NOT_NAMED 1935-09-08 06:00:00 TS 19.8298 88.5924 main 194 168 _________OP___ -1 19.8000 88.4000 TC 30 19.8596 88.7849 1 5 263
1935250N20090 1935 49 NI BB NOT_NAMED 1935-09-08 09:00:00 TS 19.8060 88.3211 main 168 144 _________PP___ -1 19.7847 88.1375 TC 30 19.8273 88.5048 1 6 267
1935250N20090 1935 49 NI BB NOT_NAMED 1935-09-08 12:00:00 TS 19.8032 87.9862 main 144 109 _________OP___ -1 19.8000 87.8000 TC 30 19.8064 88.1723 1 7 271
1935250N20090 1935 49 NI BB NOT_NAMED 1935-09-08 15:00:00 TS 19.8252 87.5251 main 100 54 _________PO___ -1 19.8504 87.2501 TC 30 19.8000 87.8000 1 9 273
1935250N20090 1935 49 NI BB NOT_NAMED 1935-09-08 18:00:00 TS 19.8578 87.0211 main 54 23 _________OP___ -1 19.9000 86.7000 TC 30 19.8156 87.3422 1 9 273
1935250N20090 1935 49 NI BB NOT_NAMED 1935-09-08 21:00:00 TS 19.8756 86.5889 main 23 11 _________PP___ -1 19.9073 86.3174 TC 30 19.8438 86.8604 1 7 272
1935250N20090 1935 49 NI BB NOT_NAMED 1935-09-09 00:00:00 TS 19.8875 86.2617 main 11 0 _________OP___ -1 19.9000 86.1000 TC 30 19.8749 86.4233 1 5 273
1935250N20090 1935 49 NI BB NOT_NAMED 1935-09-09 03:00:00 TS 19.9000 86.0775 main 0 0 _________PO___ -1 19.8999 86.0550 TC 30 19.9000 86.1000 1 2 274
1935250N20090 1935 49 NI BB NOT_NAMED 1935-09-09 06:00:00 TS 19.9033 86.0389 main 0 0 _________OP___ -1 19.9000 86.1000 TC 30 19.9066 85.9778 1 0 275
1935250N20090 1935 49 NI BB NOT_NAMED 1935-09-09 09:00:00 TS 19.9034 86.0362 main 0 0 _________PP___ -1 19.9000 86.1000 TC 30 19.9069 85.9724 1 0 0
1935250N20090 1935 49 NI BB NOT_NAMED 1935-09-09 12:00:00 TS 19.9019 86.0654 main 0 0 _________OP___ -1 19.9000 86.1000 TC 30 19.9037 86.0309 1 1 94
1935250N20090 1935 49 NI BB NOT_NAMED 1935-09-09 15:00:00 TS 19.9000 86.1000 main 0 0 _________PO___ -1 19.9000 86.1000 TC 30 19.9000 86.1000 1 1 104
1935250N20090 1935 49 NI BB NOT_NAMED 1935-09-09 18:00:00 TS 19.8812 86.1626 main 10 10 _________OP___ -1 19.9000 86.1000 TC 30 19.8623 86.2251 1 2 107
1935250N20090 1935 49 NI BB NOT_NAMED 1935-09-09 21:00:00 TS 19.8538 86.2604 main 11 10 _________PP___ -1 19.8772 86.1898 TC 30 19.8304 86.3309 1 0 112
1935250N20090 1935 49 NI BB NOT_NAMED 1935-09-10 00:00:00 TS 19.8666 86.2106 main 10 0 _________OP___ -1 19.9000 86.1000 TC 30 19.8333 86.3213 1 4 285
1935250N20090 1935 49 NI BB NOT_NAMED 1935-09-10 03:00:00 TS 19.9524 85.8710 main 0 0 _________PO___ -1 20.0047 85.6421 TC 30 19.9000 86.1000 1 10 285
1935250N20090 1935 49 NI BB NOT_NAMED 1935-09-10 06:00:00 TS 20.1149 85.2198 main 0 0 _________OP___ -1 20.2000 84.9000 TC 30 20.0299 85.5395 1 15 286
1935250N20090 1935 49 NI BB NOT_NAMED 1935-09-10 09:00:00 TS 20.3481 84.3699 main 0 0 _________PP___ -1 20.4707 83.9728 TC 30 20.2256 84.7670 1 17 288
1935250N20090 1935 49 NI BB NOT_NAMED 1935-09-10 12:00:00 TS 20.6415 83.4430 main 0 0 _________OP___ -1 20.8000 83.0000 TC 30 20.4830 83.8859 1 18 290
1935250N20090 1935 49 NI BB NOT_NAMED 1935-09-10 15:00:00 TS 20.9597 82.6059 main 0 0 _________PO___ -1 21.1193 82.2118 TC 30 20.8000 83.0000 1 16 295
1935250N20090 1935 49 NI BB NOT_NAMED 1935-09-10 18:00:00 TS 21.3135 81.8952 main 0 0 _________OP___ -1 21.5000 81.5000 TC 30 21.1736 82.1915 1 15 301
1935250N20090 1935 49 NI BB NOT_NAMED 1935-09-10 21:00:00 TS 21.7443 81.1941 main 0 0 _________PP___ -1 21.9732 80.8013 TC 30 21.5917 81.4560 1 15 305
1935250N20090 1935 49 NI BB NOT_NAMED 1935-09-11 00:00:00 TS 22.1927 80.5449 main 0 0 _________OP___ -1 22.5000 80.1000 TC 30 22.0391 80.7674 1 13 307
1935250N20090 1935 49 NI BB NOT_NAMED 1935-09-11 03:00:00 NR 22.5000 80.1000 main 0 __________O___ -1 TC 22.5000 80.1000 1 10 307

IBTrACS Databaseについて

本データベースは、米国NOAAが公開する1842年以降の世界の熱帯低気圧のベストトラックデータアーカイブInternational Best Track Archive for Climate Stewardship (IBTrACS)を、ウェブで閲覧しやすい形式に変換したものです。

最終更新日:2021-11-26